createdAt,value
2024-03-09T07:04:34.772Z,4.320011
2024-03-09T07:05:29.976Z,2.520006
2024-03-09T07:07:24.602Z,4.680012
2024-03-09T07:08:25.871Z,4.080010
2024-03-09T07:09:22.345Z,4.680012
2024-03-09T07:10:22.730Z,1.800004
2024-03-09T07:11:44.895Z,1.800004
2024-03-09T07:13:38.150Z,4.680012
2024-03-09T07:14:20.701Z,0.000000
2024-03-09T07:15:22.557Z,0.000000
2024-03-09T07:19:30.335Z,2.340006
2024-03-09T07:20:20.388Z,2.160005
2024-03-09T07:21:22.196Z,0.000000
2024-03-09T07:22:27.254Z,0.000000
2024-03-09T07:24:22.612Z,0.000000
2024-03-09T07:25:34.720Z,0.000000
2024-03-09T07:26:38.647Z,0.000000
2024-03-09T07:28:39.236Z,0.000000
2024-03-09T07:29:31.768Z,6.480016
2024-03-09T07:32:47.700Z,3.240008
2024-03-09T07:33:40.460Z,3.240008
2024-03-09T07:36:30.188Z,1.872005
2024-03-09T07:37:29.336Z,2.520006
2024-03-09T07:38:25.624Z,0.000000
2024-03-09T07:39:57.196Z,0.720002
2024-03-09T07:40:30.192Z,2.160005
2024-03-09T07:41:25.240Z,1.080003
2024-03-09T07:42:20.509Z,0.000000
2024-03-09T07:43:36.359Z,0.000000
2024-03-09T07:44:28.138Z,0.000000
2024-03-09T07:45:24.303Z,0.000000
2024-03-09T07:46:22.625Z,1.260003
2024-03-09T07:47:29.803Z,1.890005
2024-03-09T07:48:25.441Z,0.000000
2024-03-09T07:49:21.785Z,0.000000
2024-03-09T07:50:31.692Z,0.600001
2024-03-09T07:51:36.589Z,0.360001
2024-03-09T07:52:22.281Z,0.720002
2024-03-09T07:53:21.619Z,0.000000
2024-03-09T07:54:20.486Z,1.800004
2024-03-09T07:55:40.398Z,3.060008
2024-03-09T07:56:24.586Z,1.800004
2024-03-09T07:57:33.422Z,2.760007
2024-03-09T07:58:27.777Z,4.680012
2024-03-09T07:59:23.439Z,0.000000
2024-03-09T08:00:27.119Z,0.576001
2024-03-09T08:01:24.399Z,1.440004
2024-03-09T08:02:26.158Z,0.000000
2024-03-09T08:03:20.364Z,3.600009
2024-03-09T08:04:33.492Z,5.760014
2024-03-09T08:05:26.779Z,2.400006
2024-03-09T08:06:24.206Z,0.450001
2024-03-09T08:07:20.616Z,1.080003
2024-03-09T08:08:23.950Z,0.000000
2024-03-09T08:09:20.880Z,0.000000
2024-03-09T08:10:23.297Z,0.000000
2024-03-09T08:11:31.958Z,0.000000
2024-03-09T08:12:26.745Z,0.000000
2024-03-09T08:13:41.077Z,0.000000
2024-03-09T08:14:23.725Z,0.000000
2024-03-09T08:15:32.843Z,0.000000
2024-03-09T08:16:21.999Z,2.040005
2024-03-09T08:17:20.984Z,1.800004
2024-03-09T08:18:30.599Z,1.944005
2024-03-09T08:19:29.129Z,1.620004
2024-03-09T08:20:23.546Z,0.000000
2024-03-09T08:21:27.346Z,0.000000
2024-03-09T08:22:29.342Z,0.000000
2024-03-09T08:23:28.576Z,0.000000
2024-03-09T08:24:22.413Z,0.000000
2024-03-09T08:25:23.316Z,0.000000
2024-03-09T08:26:26.941Z,0.000000
2024-03-09T08:27:24.527Z,0.000000
2024-03-09T08:28:35.339Z,0.000000
2024-03-09T08:29:28.570Z,0.000000
2024-03-09T08:30:24.652Z,0.000000
2024-03-09T08:31:21.708Z,0.000000
2024-03-09T08:32:24.542Z,0.000000
2024-03-09T08:33:28.159Z,0.000000
2024-03-09T08:34:22.532Z,0.000000
2024-03-09T08:35:47.921Z,0.000000
2024-03-09T08:36:19.452Z,1.080003
2024-03-09T08:37:24.905Z,4.140010
2024-03-09T08:38:21.836Z,7.290018
2024-03-09T08:39:22.612Z,7.200018
2024-03-09T08:40:26.447Z,5.040013
2024-03-09T08:41:22.501Z,4.800012
2024-03-09T08:42:36.258Z,3.780009
2024-03-09T08:43:25.245Z,3.240008
2024-03-09T08:44:24.530Z,2.970007
2024-03-09T08:45:21.889Z,4.860012
2024-03-09T08:46:26.075Z,0.630002
2024-03-09T08:47:19.715Z,1.680004
2024-03-09T08:48:22.574Z,0.000000
2024-03-09T08:49:34.601Z,0.000000
2024-03-09T08:50:27.225Z,0.000000
2024-03-09T08:51:25.402Z,1.170003
2024-03-09T08:52:20.458Z,3.510009
2024-03-09T08:53:27.014Z,0.810002
2024-03-09T08:54:26.363Z,3.240008
2024-03-09T08:55:22.640Z,4.680012
2024-03-09T08:56:32.702Z,5.256013
2024-03-09T08:57:28.720Z,1.800004
2024-03-09T08:58:24.318Z,3.960010
2024-03-09T08:59:23.299Z,3.510009
2024-03-09T09:00:31.838Z,1.296003
2024-03-09T09:01:28.012Z,2.790007
2024-03-09T09:02:23.305Z,2.040005
2024-03-09T09:03:33.524Z,4.680012
2024-03-09T09:04:33.078Z,5.940015
2024-03-09T09:05:24.863Z,5.400013
2024-03-09T09:06:20.329Z,3.240008
2024-03-09T09:07:30.680Z,2.160005
2024-03-09T09:08:33.194Z,1.710004
2024-03-09T09:09:25.469Z,7.560019
2024-03-09T09:10:34.075Z,6.660017
2024-03-09T09:11:28.795Z,4.500011
2024-03-09T09:12:22.986Z,3.780009
2024-03-09T09:13:21.327Z,0.360001
2024-03-09T09:14:30.536Z,1.440004
2024-03-09T09:15:30.916Z,1.080003
2024-03-09T09:16:22.679Z,0.990002
2024-03-09T09:17:22.862Z,3.240008
2024-03-09T09:18:28.539Z,2.160005
2024-03-09T09:19:40.726Z,2.760007
2024-03-09T09:20:21.072Z,2.400006
2024-03-09T09:21:32.901Z,4.464011
2024-03-09T09:22:27.476Z,5.490014
2024-03-09T09:23:24.343Z,4.050010
2024-03-09T09:24:25.608Z,2.160005
2024-03-09T09:25:31.116Z,2.160005
2024-03-09T09:26:29.350Z,0.810002
2024-03-09T09:27:34.331Z,3.420009
2024-03-09T09:28:31.678Z,5.580014
2024-03-09T09:29:26.602Z,7.200018
2024-03-09T09:30:37.587Z,2.340006
2024-03-09T09:31:29.364Z,7.560019
2024-03-09T09:32:23.629Z,8.520021
2024-03-09T09:33:24.729Z,4.410011
2024-03-09T09:34:20.660Z,3.240008
2024-03-09T09:35:31.396Z,1.620004
2024-03-09T09:36:27.477Z,0.000000
2024-03-09T09:37:26.379Z,0.360001
2024-03-09T09:38:33.570Z,0.864002
2024-03-09T09:39:30.300Z,0.000000
2024-03-09T09:40:21.679Z,1.080003
2024-03-09T09:41:36.540Z,2.430006
2024-03-09T09:42:30.571Z,0.000000
2024-03-09T09:43:28.311Z,1.080003
2024-03-09T09:44:23.493Z,3.690009
2024-03-09T09:45:37.647Z,1.080003
2024-03-09T09:46:32.510Z,0.000000
2024-03-09T09:47:26.244Z,2.880007
2024-03-09T09:48:25.196Z,3.600009
2024-03-09T09:49:31.871Z,0.864002
2024-03-09T09:50:26.436Z,0.000000
2024-03-09T09:51:24.181Z,0.000000
2024-03-09T09:52:32.864Z,0.000000
2024-03-09T09:53:28.389Z,0.000000
2024-03-09T09:54:29.241Z,0.000000
2024-03-09T09:55:21.366Z,0.720002
2024-03-09T09:56:32.151Z,1.800004
2024-03-09T09:57:26.628Z,2.520006
2024-03-09T09:58:24.025Z,5.940015
2024-03-09T09:59:21.784Z,5.472014
2024-03-09T10:00:29.882Z,4.140010
2024-03-09T10:01:25.217Z,5.670014
2024-03-09T10:02:26.202Z,7.110018
2024-03-09T10:03:31.684Z,3.528009
2024-03-09T10:04:27.936Z,3.360008
2024-03-09T10:05:23.992Z,1.620004
2024-03-09T10:06:24.413Z,4.464011
2024-03-09T10:07:30.759Z,1.530004
2024-03-09T10:08:24.257Z,1.800004
2024-03-09T10:09:21.702Z,1.200003
2024-03-09T10:10:21.318Z,1.728004
2024-03-09T10:11:29.897Z,4.050010
2024-03-09T10:12:22.566Z,2.790007
2024-03-09T10:13:27.531Z,3.780009
2024-03-09T10:14:31.791Z,6.390016
2024-03-09T10:15:24.897Z,5.880015
2024-03-09T10:16:21.696Z,3.510009
2024-03-09T10:17:26.389Z,4.752012
2024-03-09T10:18:27.480Z,5.220013
2024-03-09T10:19:23.811Z,5.760014
2024-03-09T10:20:32.535Z,7.416018
2024-03-09T10:21:31.086Z,5.880015
2024-03-09T10:22:24.906Z,5.670014
2024-03-09T10:23:23.490Z,0.000000
2024-03-09T10:24:26.420Z,3.456009
2024-03-09T10:25:24.395Z,9.180023
2024-03-09T10:26:22.762Z,8.280021
2024-03-09T10:27:39.185Z,3.528009
2024-03-09T10:28:22.674Z,3.960010
2024-03-09T10:29:24.710Z,5.490014
2024-03-09T10:30:23.019Z,2.700007
2024-03-09T10:31:35.550Z,2.808007
2024-03-09T10:32:26.929Z,1.440004
2024-03-09T10:33:19.658Z,0.720002
2024-03-09T10:34:33.541Z,2.304006
2024-03-09T10:35:23.322Z,2.520006
2024-03-09T10:36:26.421Z,1.530004
2024-03-09T10:37:20.653Z,1.800004
2024-03-09T10:38:31.442Z,1.080003
2024-03-09T10:39:27.024Z,0.000000
2024-03-09T10:40:24.241Z,3.240008
2024-03-09T10:41:33.415Z,6.120015
2024-03-09T10:42:28.519Z,3.330008
2024-03-09T10:43:24.624Z,2.760007
2024-03-09T10:44:21.363Z,6.030015
2024-03-09T10:45:31.104Z,5.472014
2024-03-09T10:46:25.225Z,1.800004
2024-03-09T10:47:23.256Z,3.510009
2024-03-09T10:48:20.354Z,3.456009
2024-03-09T10:49:29.599Z,4.200010
2024-03-09T10:50:24.622Z,1.710004
2024-03-09T10:51:24.802Z,1.440004
2024-03-09T10:52:30.436Z,0.864002
2024-03-09T10:53:24.454Z,1.080003
2024-03-09T10:54:22.551Z,4.680012
2024-03-09T10:55:24.006Z,4.680012
2024-03-09T10:56:28.441Z,3.330008
2024-03-09T10:57:19.625Z,2.250006
2024-03-09T10:58:22.136Z,2.340006
2024-03-09T10:59:32.053Z,6.120015
2024-03-09T11:00:27.395Z,5.940015
2024-03-09T11:01:22.518Z,3.420009
2024-03-09T11:02:28.270Z,5.904015
2024-03-09T11:03:24.163Z,3.960010
2024-03-09T11:04:26.835Z,3.780009
2024-03-09T11:05:23.552Z,1.920005
2024-03-09T11:06:33.404Z,1.728004
2024-03-09T11:07:27.866Z,1.620004
2024-03-09T11:08:23.146Z,1.260003
2024-03-09T11:09:34.133Z,3.600009
2024-03-09T11:10:25.613Z,1.680004
2024-03-09T11:11:25.467Z,2.250006
2024-03-09T11:12:20.509Z,3.060008
2024-03-09T11:13:32.152Z,4.392011
2024-03-09T11:14:26.984Z,3.600009
2024-03-09T11:15:23.906Z,2.250006
2024-03-09T11:16:35.094Z,2.400006
2024-03-09T11:17:29.979Z,4.230011
2024-03-09T11:18:25.103Z,4.050010
2024-03-09T11:19:20.398Z,4.800012
2024-03-09T11:20:32.789Z,4.896012
2024-03-09T11:21:26.719Z,3.510009
2024-03-09T11:22:24.650Z,2.430006
2024-03-09T11:23:33.822Z,0.000000
2024-03-09T11:24:28.774Z,0.360001
2024-03-09T11:25:28.792Z,3.240008
2024-03-09T11:26:20.477Z,7.380018
2024-03-09T11:27:31.805Z,4.320011
2024-03-09T11:28:26.670Z,4.230011
2024-03-09T11:29:25.425Z,1.350003
2024-03-09T11:30:33.438Z,0.576001
2024-03-09T11:31:30.881Z,1.440004
2024-03-09T11:32:24.769Z,1.620004
2024-03-09T11:33:25.727Z,1.620004
2024-03-09T11:34:30.755Z,0.000000
2024-03-09T11:35:27.804Z,0.000000
2024-03-09T11:36:22.840Z,0.000000
2024-03-09T11:37:32.680Z,1.728004
2024-03-09T11:38:29.698Z,4.320011
2024-03-09T11:39:24.804Z,6.030015
2024-03-09T11:40:20.742Z,4.950012
2024-03-09T11:41:21.700Z,4.248011
2024-03-09T11:42:27.720Z,7.020017
2024-03-09T11:43:22.658Z,6.930017
2024-03-09T11:44:19.373Z,5.472014
2024-03-09T11:45:28.524Z,6.120015
2024-03-09T11:46:25.701Z,6.030015
2024-03-09T11:47:20.803Z,6.120015
2024-03-09T11:48:28.624Z,6.048015
2024-03-09T11:49:50.121Z,3.690009
2024-03-09T11:50:23.198Z,2.790007
2024-03-09T11:51:23.711Z,5.310013
2024-03-09T11:52:30.366Z,3.420009
2024-03-09T11:53:26.466Z,1.350003
2024-03-09T11:54:21.656Z,0.000000
2024-03-09T11:55:30.340Z,0.000000
2024-03-09T11:56:22.941Z,1.800004
2024-03-09T11:57:22.624Z,5.130013
2024-03-09T11:58:27.716Z,4.752012
2024-03-09T11:59:28.514Z,5.400013
2024-03-09T12:00:26.882Z,4.410011
2024-03-09T12:01:20.753Z,2.250006
2024-03-09T12:02:21.689Z,4.680012
2024-03-09T12:03:26.987Z,4.320011
2024-03-09T12:04:23.951Z,3.720009
2024-03-09T12:05:29.357Z,4.140010
2024-03-09T12:06:29.617Z,5.130013
2024-03-09T12:07:26.192Z,7.740019
2024-03-09T12:08:21.608Z,2.430006
2024-03-09T12:09:24.245Z,2.592006
2024-03-09T12:10:31.144Z,0.000000
2024-03-09T12:11:24.317Z,0.810002
2024-03-09T12:12:32.769Z,2.340006
2024-03-09T12:13:28.930Z,1.440004
2024-03-09T12:14:24.826Z,1.080003
2024-03-09T12:15:20.935Z,0.450001
2024-03-09T12:16:27.031Z,1.080003
2024-03-09T12:17:26.938Z,0.000000
2024-03-09T12:18:22.444Z,1.350003
2024-03-09T12:19:21.224Z,1.296003
2024-03-09T12:20:22.856Z,2.430006
2024-03-09T12:21:24.477Z,0.900002
2024-03-09T12:22:21.683Z,3.330008
2024-03-09T12:23:32.678Z,2.232006
2024-03-09T12:24:29.662Z,1.200003
2024-03-09T12:25:22.510Z,0.450001
2024-03-09T12:26:25.871Z,2.376006
2024-03-09T12:27:25.686Z,3.420009
2024-03-09T12:28:24.942Z,2.970007
2024-03-09T12:29:21.904Z,0.000000
2024-03-09T12:30:34.712Z,0.000000
2024-03-09T12:31:19.499Z,0.000000
2024-03-09T12:32:24.771Z,0.000000
2024-03-09T12:33:33.994Z,0.000000
2024-03-09T12:34:22.988Z,0.000000
2024-03-09T12:35:25.005Z,0.000000
2024-03-09T12:36:20.922Z,0.000000
2024-03-09T12:37:32.243Z,0.630002
2024-03-09T12:38:23.124Z,2.970007
2024-03-09T12:39:26.348Z,3.870010
2024-03-09T12:40:35.732Z,2.520006
2024-03-09T12:41:30.782Z,1.680004
2024-03-09T12:42:20.958Z,0.000000
2024-03-09T12:43:20.879Z,0.000000
2024-03-09T12:44:33.589Z,2.016005
2024-03-09T12:45:26.668Z,5.580014
2024-03-09T12:46:24.717Z,5.640014
2024-03-09T12:47:36.814Z,1.512004
2024-03-09T12:48:34.850Z,1.200003
2024-03-09T12:49:24.756Z,3.840010
2024-03-09T12:50:21.881Z,3.600009
2024-03-09T12:51:32.049Z,2.304006
2024-03-09T12:52:29.432Z,3.240008
2024-03-09T12:53:22.825Z,5.940015
2024-03-09T12:54:32.537Z,6.552016
2024-03-09T12:55:29.946Z,4.590011
2024-03-09T12:56:25.133Z,2.430006
2024-03-09T12:57:21.762Z,1.560004
2024-03-09T12:58:30.595Z,4.536011
2024-03-09T12:59:29.382Z,4.050010
2024-03-09T13:00:22.688Z,3.330008
2024-03-09T13:01:33.238Z,2.736007
2024-03-09T13:02:30.214Z,1.620004
2024-03-09T13:03:30.402Z,2.430006
2024-03-09T13:04:28.430Z,2.790007
2024-03-09T13:05:31.187Z,0.864002
2024-03-09T13:06:28.947Z,0.000000
2024-03-09T13:07:23.532Z,0.630002
2024-03-09T13:08:32.934Z,4.680012
2024-03-09T13:09:30.220Z,7.080018
2024-03-09T13:10:24.710Z,7.200018
2024-03-09T13:11:21.044Z,7.200018
2024-03-09T13:12:20.367Z,9.288023
2024-03-09T13:13:26.665Z,7.110018
2024-03-09T13:14:24.790Z,5.670014
2024-03-09T13:15:32.813Z,6.264016
2024-03-09T13:16:30.261Z,7.110018
2024-03-09T13:17:25.780Z,5.130013
2024-03-09T13:18:20.550Z,3.060008
2024-03-09T13:19:23.712Z,3.060008
2024-03-09T13:20:21.421Z,2.700007
2024-03-09T13:21:22.573Z,0.000000
2024-03-09T13:22:32.759Z,1.296003
2024-03-09T13:23:30.066Z,4.590011
2024-03-09T13:24:25.009Z,8.640021
2024-03-09T13:25:25.093Z,7.020017
2024-03-09T13:26:27.350Z,4.032010
2024-03-09T13:27:21.162Z,7.020017
2024-03-09T13:28:24.951Z,6.120015
2024-03-09T13:29:32.803Z,1.080003
2024-03-09T13:30:30.371Z,0.000000
2024-03-09T13:31:25.956Z,0.000000
2024-03-09T13:32:22.319Z,0.450001
2024-03-09T13:33:31.349Z,2.376006
2024-03-09T13:34:28.451Z,3.780009
2024-03-09T13:35:23.063Z,3.600009
2024-03-09T13:36:20.717Z,2.880007
2024-03-09T13:37:28.856Z,5.130013
2024-03-09T13:38:26.664Z,3.240008
2024-03-09T13:39:20.371Z,3.240008
2024-03-09T13:40:30.784Z,4.392011
2024-03-09T13:41:28.726Z,5.220013
2024-03-09T13:42:25.706Z,2.880007
2024-03-09T13:43:26.684Z,3.960010
2024-03-09T13:44:29.572Z,3.780009
2024-03-09T13:45:27.190Z,3.240008
2024-03-09T13:46:24.073Z,3.240008
2024-03-09T13:47:30.881Z,1.944005
2024-03-09T13:48:27.405Z,0.000000
2024-03-09T13:49:27.383Z,0.000000
2024-03-09T13:50:24.970Z,1.872005
2024-03-09T13:51:33.225Z,3.510009
2024-03-09T13:52:24.741Z,0.000000
2024-03-09T13:53:22.450Z,0.900002
2024-03-09T13:54:23.368Z,4.176010
2024-03-09T13:55:36.309Z,3.780009
2024-03-09T13:56:24.743Z,0.000000
2024-03-09T13:57:22.060Z,0.000000
2024-03-09T13:58:24.736Z,0.000000
2024-03-09T13:59:25.251Z,0.000000
2024-03-09T14:00:22.838Z,0.000000
2024-03-09T14:01:26.781Z,0.000000
2024-03-09T14:02:37.333Z,0.000000
2024-03-09T14:03:27.270Z,0.000000
2024-03-09T14:04:27.909Z,2.160005
2024-03-09T14:05:26.884Z,5.670014
2024-03-09T14:06:27.024Z,5.490014
2024-03-09T14:07:22.869Z,1.890005
2024-03-09T14:08:29.198Z,0.000000
2024-03-09T14:09:28.745Z,0.630002
2024-03-09T14:10:25.219Z,1.890005
2024-03-09T14:11:42.703Z,0.000000
2024-03-09T14:12:33.070Z,0.000000
2024-03-09T14:13:26.637Z,0.000000
2024-03-09T14:14:21.406Z,0.000000
2024-03-09T14:15:30.953Z,0.000000
2024-03-09T14:16:28.520Z,0.000000
2024-03-09T14:17:23.735Z,0.450001
2024-03-09T14:18:34.582Z,1.800004
2024-03-09T14:19:29.226Z,1.200003
2024-03-09T14:20:20.405Z,0.000000
2024-03-09T14:21:48.017Z,1.080003
2024-03-09T14:22:43.753Z,4.752012
2024-03-09T14:23:22.232Z,6.030015
2024-03-09T14:24:27.688Z,6.570016
2024-03-09T14:25:40.981Z,1.890005
2024-03-09T14:26:33.193Z,0.000000
2024-03-09T14:27:27.280Z,0.000000
2024-03-09T14:28:23.886Z,0.000000
2024-03-09T14:29:35.313Z,1.008003
2024-03-09T14:30:26.273Z,2.340006
2024-03-09T14:31:24.124Z,1.350003
2024-03-09T14:32:42.096Z,0.576001
2024-03-09T14:33:38.376Z,2.250006
2024-03-09T14:34:32.968Z,4.590011
2024-03-09T14:35:23.685Z,3.240008
2024-03-09T14:36:25.793Z,2.736007
2024-03-09T14:37:30.674Z,5.130013
2024-03-09T14:38:24.967Z,0.000000
2024-03-09T14:39:32.862Z,0.000000
2024-03-09T14:40:31.019Z,0.000000
2024-03-09T14:41:24.461Z,0.000000
2024-03-09T14:42:21.461Z,0.810002
2024-03-09T14:43:25.248Z,1.944005
2024-03-09T14:44:41.558Z,0.000000
2024-03-09T14:45:26.138Z,4.230011
2024-03-09T14:46:40.305Z,4.392011
2024-03-09T14:47:32.798Z,2.520006
2024-03-09T14:48:45.619Z,3.510009
2024-03-09T14:49:36.395Z,0.000000
2024-03-09T14:50:31.430Z,0.000000
2024-03-09T14:51:38.259Z,0.630002
2024-03-09T14:52:31.064Z,1.890005
2024-03-09T14:53:40.190Z,0.720002
2024-03-09T14:54:34.687Z,1.350003
2024-03-09T14:55:31.027Z,0.000000
2024-03-09T14:56:21.198Z,0.000000
2024-03-09T14:57:26.590Z,0.000000
2024-03-09T14:58:21.077Z,0.000000
2024-03-09T14:59:24.404Z,0.000000
2024-03-09T15:00:32.677Z,0.000000
2024-03-09T15:01:31.014Z,0.000000
2024-03-09T15:02:41.624Z,0.000000
2024-03-09T15:03:28.567Z,0.360001
2024-03-09T15:04:41.803Z,2.448006
2024-03-09T15:05:23.396Z,3.120008
2024-03-09T15:06:27.879Z,2.250006
2024-03-09T15:07:35.069Z,3.420009
2024-03-09T15:08:30.237Z,1.980005
2024-03-09T15:09:24.930Z,1.080003
2024-03-09T15:10:24.472Z,0.630002
2024-03-09T15:11:30.843Z,1.260003
2024-03-09T15:12:32.224Z,0.540001
2024-03-09T15:13:22.845Z,1.980005
2024-03-09T15:14:20.048Z,4.320011
2024-03-09T15:15:29.590Z,5.160013
2024-03-09T15:16:25.943Z,4.140010
2024-03-09T15:17:23.499Z,3.870010
2024-03-09T15:18:30.946Z,1.872005
2024-03-09T15:19:28.016Z,2.520006
2024-03-09T15:20:26.926Z,1.620004
2024-03-09T15:21:26.776Z,0.864002
2024-03-09T15:22:33.050Z,1.980005
2024-03-09T15:23:25.870Z,1.980005
2024-03-09T15:24:21.337Z,2.700007
2024-03-09T15:25:31.300Z,0.000000
2024-03-09T15:26:32.574Z,0.000000
2024-03-09T15:27:29.922Z,1.080003
2024-03-09T15:28:24.583Z,3.888010
2024-03-09T15:29:21.233Z,2.430006
2024-03-09T15:30:25.559Z,0.000000
2024-03-09T15:31:26.321Z,0.000000
2024-03-09T15:32:32.361Z,2.160005
2024-03-09T15:33:29.020Z,5.040013
2024-03-09T15:34:22.572Z,3.240008
2024-03-09T15:35:25.223Z,0.864002
2024-03-09T15:36:25.785Z,2.970007
2024-03-09T15:37:25.374Z,4.050010
2024-03-09T15:38:21.618Z,1.080003
2024-03-09T15:39:21.305Z,3.528009
2024-03-09T15:40:30.009Z,4.230011
2024-03-09T15:41:22.750Z,4.440011
2024-03-09T15:42:29.354Z,4.950012
2024-03-09T15:43:22.229Z,9.180023
2024-03-09T15:44:28.107Z,5.160013
2024-03-09T15:45:22.636Z,2.760007
2024-03-09T15:46:23.341Z,3.528009
2024-03-09T15:47:30.320Z,3.960010
2024-03-09T15:48:23.902Z,2.520006
2024-03-09T15:49:33.276Z,2.808007
2024-03-09T15:50:29.634Z,2.880007
2024-03-09T15:51:19.772Z,0.000000
2024-03-09T15:52:21.679Z,0.000000
2024-03-09T15:53:27.182Z,3.600009
2024-03-09T15:54:26.846Z,7.200018
2024-03-09T15:55:25.042Z,4.770012
2024-03-09T15:56:35.047Z,1.944005
2024-03-09T15:57:21.298Z,2.430006
2024-03-09T15:58:24.984Z,4.230011
2024-03-09T15:59:21.033Z,6.960017
2024-03-09T16:00:31.892Z,5.184013
2024-03-09T16:01:43.519Z,3.840010
2024-03-09T16:02:24.004Z,5.040013
2024-03-09T16:03:33.966Z,3.168008
2024-03-09T16:04:23.694Z,1.890005
2024-03-09T16:05:36.193Z,0.540001
2024-03-09T16:06:21.257Z,2.250006
2024-03-09T16:07:21.689Z,3.060008
2024-03-09T16:08:32.175Z,3.600009
2024-03-09T16:09:24.598Z,2.760007
2024-03-09T16:10:34.054Z,4.104010
2024-03-09T16:11:28.763Z,1.620004
2024-03-09T16:12:30.592Z,2.280006
2024-03-09T16:13:21.914Z,6.930017
2024-03-09T16:14:26.966Z,6.480016
2024-03-09T16:15:21.708Z,4.080010
2024-03-09T16:16:22.946Z,2.880007
2024-03-09T16:17:34.708Z,2.304006
2024-03-09T16:18:29.993Z,2.880007
2024-03-09T16:19:25.916Z,1.530004
2024-03-09T16:20:20.962Z,1.350003
2024-03-09T16:21:23.819Z,0.864002
2024-03-09T16:22:30.154Z,1.440004
2024-03-09T16:23:23.502Z,0.000000
2024-03-09T16:24:35.835Z,0.000000
2024-03-09T16:25:31.598Z,0.000000
2024-03-09T16:26:21.818Z,0.000000
2024-03-09T16:27:21.752Z,0.000000
2024-03-09T16:28:25.298Z,0.720002
2024-03-09T16:29:27.722Z,1.680004
2024-03-09T16:30:22.685Z,1.620004
2024-03-09T16:31:35.215Z,1.980005
2024-03-09T16:32:30.750Z,2.610006
2024-03-09T16:33:25.384Z,4.800012
2024-03-09T16:34:28.784Z,5.160013
2024-03-09T16:35:31.070Z,4.680012
2024-03-09T16:36:23.442Z,6.000015
2024-03-09T16:37:25.060Z,2.160005
2024-03-09T16:38:36.281Z,5.940015
2024-03-09T16:39:29.046Z,7.920020
2024-03-09T16:40:26.685Z,2.700007
2024-03-09T16:41:21.319Z,5.400013
2024-03-09T16:42:35.731Z,3.240008
2024-03-09T16:43:33.013Z,1.620004
2024-03-09T16:44:24.558Z,4.320011
2024-03-09T16:45:21.653Z,3.000007
2024-03-09T16:46:32.276Z,1.350003
2024-03-09T16:47:28.805Z,0.990002
2024-03-09T16:48:45.811Z,0.000000
2024-03-09T16:50:28.720Z,2.790007
2024-03-09T16:51:23.808Z,4.500011
2024-03-09T16:52:26.016Z,4.320011
2024-03-09T16:53:28.943Z,0.000000
2024-03-09T16:54:24.999Z,0.000000
2024-03-09T16:55:22.630Z,0.000000
2024-03-09T16:56:32.773Z,0.000000
2024-03-09T16:57:35.889Z,0.000000
2024-03-09T16:58:24.784Z,0.000000
2024-03-09T16:59:20.195Z,0.000000
2024-03-09T17:00:23.700Z,1.080003
2024-03-09T17:01:28.236Z,2.070005
2024-03-09T17:02:21.782Z,2.160005
2024-03-09T17:03:46.658Z,3.240008
2024-03-09T17:04:39.958Z,2.160005
2024-03-09T17:05:31.410Z,3.600009
2024-03-09T17:06:25.209Z,3.360008
2024-03-09T17:07:28.890Z,0.000000
2024-03-09T17:08:19.817Z,1.440004
2024-03-09T17:09:24.804Z,0.720002
2024-03-09T17:10:30.970Z,0.900002
2024-03-09T17:11:28.960Z,1.800004
2024-03-09T17:12:37.543Z,6.480016
2024-03-09T17:13:22.073Z,0.000000
2024-03-09T17:15:24.900Z,2.700007
2024-03-09T17:16:21.979Z,2.700007
2024-03-09T17:17:30.675Z,2.520006
2024-03-09T17:18:50.934Z,6.720017
2024-03-09T17:19:24.756Z,10.080025
2024-03-09T17:20:25.684Z,3.240008
2024-03-09T17:21:25.054Z,1.980005
2024-03-09T17:22:25.512Z,4.680012
2024-03-09T17:23:23.470Z,7.560019
2024-03-09T17:24:44.795Z,9.120023
2024-03-09T17:25:42.361Z,4.860012
2024-03-09T17:26:40.506Z,3.960010
2024-03-09T17:29:22.226Z,5.400013
2024-03-09T17:30:21.347Z,3.960010
2024-03-09T17:31:20.660Z,3.420009
2024-03-09T17:32:56.712Z,4.320011
2024-03-09T17:33:23.075Z,0.000000
2024-03-09T17:34:28.879Z,3.360008
2024-03-09T17:35:30.965Z,4.680012
2024-03-09T17:36:27.592Z,3.600009
2024-03-09T17:37:22.226Z,3.240008
2024-03-09T17:38:23.903Z,3.240008
2024-03-09T17:39:42.093Z,1.800004
2024-03-09T17:40:24.242Z,3.600009
2024-03-09T17:41:33.091Z,2.250006
2024-03-09T17:42:30.416Z,1.440004
2024-03-09T17:43:26.180Z,1.890005
2024-03-09T17:44:25.291Z,2.070005
2024-03-09T17:45:27.331Z,1.800004
2024-03-09T17:46:22.378Z,1.200003
2024-03-09T17:47:23.345Z,0.000000
2024-03-09T17:48:35.484Z,0.000000
2024-03-09T17:49:21.786Z,0.000000
2024-03-09T17:50:36.108Z,0.000000
2024-03-09T17:51:29.193Z,0.000000
2024-03-09T17:54:22.637Z,1.320003
2024-03-09T17:55:33.618Z,2.952007
2024-03-09T17:56:25.850Z,1.440004
2024-03-09T17:57:38.284Z,4.320011
2024-03-09T17:59:26.265Z,2.160005
2024-03-09T18:01:22.535Z,0.000000
2024-03-09T18:03:27.460Z,2.520006
2024-03-09T18:04:30.175Z,3.240008
2024-03-09T18:05:37.333Z,4.140010
2024-03-09T18:06:28.362Z,4.500011
2024-03-09T18:07:22.869Z,3.960010
2024-03-09T18:08:27.055Z,1.680004
2024-03-09T18:09:46.701Z,1.620004
2024-03-09T18:10:35.905Z,3.240008
2024-03-09T18:11:27.671Z,4.680012
2024-03-09T18:12:22.222Z,2.520006
2024-03-09T18:13:33.590Z,4.320011
2024-03-09T18:14:25.725Z,6.120015
2024-03-09T18:15:29.205Z,6.120015
2024-03-09T18:18:21.850Z,0.000000
2024-03-09T18:19:44.377Z,2.520006
2024-03-09T18:21:30.571Z,2.160005
2024-03-09T18:22:21.970Z,3.960010
2024-03-09T18:23:33.135Z,2.760007
2024-03-09T18:28:38.496Z,1.800004
2024-03-09T18:29:27.102Z,1.440004
2024-03-09T18:32:27.239Z,6.840017
2024-03-09T18:34:46.158Z,2.160005
2024-03-09T18:36:22.574Z,4.320011
2024-03-09T18:37:24.914Z,3.960010
2024-03-09T18:38:30.127Z,3.240008
2024-03-09T18:39:21.804Z,3.600009
2024-03-09T18:40:20.955Z,3.960010
2024-03-09T18:41:33.064Z,1.080003
2024-03-09T18:42:38.841Z,2.160005
2024-03-09T18:44:28.545Z,4.680012
2024-03-09T18:45:20.212Z,3.240008
2024-03-09T18:46:25.447Z,0.900002
2024-03-09T18:47:20.678Z,0.000000
2024-03-09T18:49:28.683Z,5.400013
2024-03-09T18:50:27.708Z,4.320011
2024-03-09T18:51:31.762Z,3.600009
2024-03-09T18:56:27.222Z,5.760014
2024-03-09T18:57:32.409Z,3.240008
2024-03-09T18:58:35.336Z,3.960010
2024-03-09T19:02:21.457Z,5.400013
2024-03-09T19:05:21.116Z,2.880007
2024-03-09T19:06:33.147Z,3.960010
2024-03-09T19:09:24.249Z,2.520006
2024-03-09T19:11:25.061Z,6.840017
2024-03-09T19:12:23.698Z,3.960010
2024-03-09T19:18:37.763Z,5.040013
2024-03-09T19:19:28.148Z,1.800004
2024-03-09T19:20:42.631Z,0.000000
2024-03-09T19:22:26.507Z,0.000000
2024-03-09T19:23:23.800Z,0.000000
2024-03-09T19:27:45.910Z,0.000000
2024-03-09T19:28:39.068Z,1.440004
2024-03-09T19:33:34.676Z,4.320011
2024-03-09T19:44:32.033Z,0.000000
2024-03-09T19:45:25.499Z,1.620004
2024-03-09T19:47:25.148Z,7.560019
2024-03-09T19:48:26.498Z,7.560019
2024-03-09T19:54:29.859Z,1.800004
2024-03-09T19:55:21.366Z,3.240008
2024-03-09T20:01:34.582Z,3.960010
2024-03-09T20:04:22.129Z,6.120015
2024-03-09T20:05:41.606Z,6.120015
2024-03-09T20:06:29.795Z,3.240008
2024-03-09T20:08:23.455Z,2.520006
2024-03-09T20:11:22.482Z,0.000000
2024-03-09T20:12:48.433Z,3.600009